Portada
METAR-TAF:

METAR-TAF

Aeroports :

Port Sudan, Sudan

latitud: 19-26N, longitud: 037-14E, altitud: 138 m

Observació

L'informe es va fer fa 14 hores i 20 minuts, a les 07:00 UTC
Vent 4 kt del Nord
Temperatura 36°C
Humitat 31%
Pressió 1008 hPa
Visibilitat 10 km o més
sense núvols per sota de 1500 mi sense presència de cumulonimbus.

METAR: HSPN 150700Z 36004KT CAVOK 36/16 Q1008

Hora: 00:20 (21:20 UTC)

Pronòstic

L'informe es va fer fa 4 hores i 20 minuts, a les 17:00 UTC
Pronòstic vàlid del 15 a les 18 UTC al 16 a les 24 UTC
Vent 8 kt del Nord/Nord-Est amb ràfegues de 18 kt
Visibilitat 10 km o més
sense núvols per sota de 1500 mi sense presència de cumulonimbus.
Evolucionant progressivament
l' 15 a les 22 UTC al 15 a les 24 UTC
Vent 8 kt del Nord-Oest

TAF: HSPN 151700Z 1518/1624 02008G18KT CAVOK BECMG 1522/1524 32008KT

Observacions i pronòstics meteorològics de més de 4000 aeroports (METAR i TAF).

Les estacions disponibles són els punts grocs i vermells al mapa.

Posi el ratolí al punt desitjat per veure el nom de l'estació.

Feu clic per veure les observacions i els pronòstics meteorològics.

Per canviar el mapa: feu clic els botons verds amb una creu de color negre per apropar; al botó verd amb un guió per allunyar la imatge; o en les fletxes verdes per a mapes adjacents.


METAR-TAF: